Time;durP1;ratioP1;P1;durP2;ratioP2;P2;SDS_P1;SDS_P2;PMS_P1;PMS_P2;Temp;Humidity;BMP_temperature;BMP_pressure;BME280_temperature;BME280_humidity;BME280_pressure;Samples;Min_cycle;Max_cycle;Signal;HPM_P1;HPM_P2
2023/05/10 00:00:34;;;;;;;13.15;2.05;;;5.70;99.90;;;;;;5053199;28;20208;-74
2023/05/10 00:02:59;;;;;;;0.30;0.30;;;5.60;99.90;;;;;;5053416;28;20306;-74
2023/05/10 00:05:25;;;;;;;0.30;0.30;;;5.50;99.90;;;;;;5053172;28;20232;-74
2023/05/10 00:07:51;;;;;;;0.30;0.30;;;5.50;99.90;;;;;;5053519;28;20194;-75
2023/05/10 00:10:17;;;;;;;0.30;0.30;;;5.50;99.90;;;;;;5053379;28;20225;-74
2023/05/10 00:12:42;;;;;;;0.30;0.30;;;5.50;99.90;;;;;;5053260;28;20209;-74
2023/05/10 00:15:09;;;;;;;0.30;0.30;;;5.50;99.90;;;;;;5035373;28;20266;-74
2023/05/10 00:17:35;;;;;;;0.30;0.30;;;5.40;99.90;;;;;;5019129;28;20236;-74
2023/05/10 00:20:00;;;;;;;0.30;0.30;;;5.30;99.90;;;;;;5052534;28;20249;-73
2023/05/10 00:22:26;;;;;;;0.40;0.40;;;5.20;99.90;;;;;;5035089;28;20198;-75
2023/05/10 00:24:52;;;;;;;0.30;0.30;;;5.10;99.90;;;;;;5053174;28;20200;-74
2023/05/10 00:27:17;;;;;;;0.30;0.30;;;5.10;99.90;;;;;;5052970;28;20276;-74
2023/05/10 00:29:43;;;;;;;1.48;1.38;;;5.00;99.90;;;;;;5052981;28;20193;-74
2023/05/10 00:32:09;;;;;;;0.30;0.30;;;4.90;99.90;;;;;;5053026;28;20644;-74
2023/05/10 00:34:35;;;;;;;0.30;0.30;;;4.90;99.90;;;;;;5052869;28;20648;-74
2023/05/10 00:37:01;;;;;;;0.40;0.40;;;4.90;99.90;;;;;;5052699;28;20212;-74
2023/05/10 00:39:28;;;;;;;0.30;0.30;;;4.90;99.90;;;;;;5052650;28;20211;-75
2023/05/10 00:41:54;;;;;;;0.30;0.30;;;4.90;99.90;;;;;;5052841;28;20550;-74
2023/05/10 00:44:20;;;;;;;0.30;0.30;;;5.00;99.90;;;;;;5052768;28;20351;-74
2023/05/10 00:46:47;;;;;;;0.40;0.40;;;5.00;99.90;;;;;;5052829;28;20268;-75
2023/05/10 00:49:13;;;;;;;0.30;0.30;;;4.90;99.90;;;;;;5052754;28;20185;-74
2023/05/10 00:51:39;;;;;;;0.40;0.40;;;4.80;99.90;;;;;;5052666;28;20725;-74
2023/05/10 00:54:06;;;;;;;0.30;0.30;;;4.80;99.90;;;;;;5052646;28;20564;-74
2023/05/10 00:56:32;;;;;;;1.02;0.95;;;4.70;99.90;;;;;;5052383;28;20188;-74
2023/05/10 00:58:58;;;;;;;0.30;0.30;;;4.60;99.90;;;;;;5052680;28;20579;-74
2023/05/10 01:01:24;;;;;;;0.30;0.30;;;4.50;99.90;;;;;;5052683;28;20286;-74
2023/05/10 01:03:49;;;;;;;0.40;0.40;;;4.50;99.90;;;;;;5055642;23;20327;-70
2023/05/10 01:06:15;;;;;;;0.30;0.30;;;4.40;99.90;;;;;;5034578;28;20284;-70
2023/05/10 01:08:41;;;;;;;0.40;0.40;;;4.30;99.90;;;;;;5034282;28;20661;-70
2023/05/10 01:11:07;;;;;;;0.30;0.30;;;4.30;99.90;;;;;;5034713;28;20189;-70
2023/05/10 01:13:39;;;;;;;0.40;0.40;;;4.30;99.90;;;;;;5035031;28;20193;-71
2023/05/10 01:16:06;;;;;;;0.30;0.30;;;4.30;99.90;;;;;;5035073;28;20734;-70
2023/05/10 01:18:38;;;;;;;2.35;1.20;;;4.30;99.90;;;;;;5052800;28;20192;-70
2023/05/10 01:21:10;;;;;;;0.30;0.30;;;4.30;99.90;;;;;;5034392;28;20251;-70
2023/05/10 01:23:45;;;;;;;0.30;0.30;;;4.30;99.90;;;;;;5052127;28;20762;-70
2023/05/10 01:26:22;;;;;;;0.30;0.30;;;4.20;99.90;;;;;;5052177;28;20189;-71
2023/05/10 01:28:48;;;;;;;0.38;0.38;;;4.20;99.90;;;;;;5034344;28;20197;-71
2023/05/10 01:31:33;;;;;;;0.40;0.40;;;4.20;99.90;;;;;;5054216;28;20281;-71
2023/05/10 01:34:05;;;;;;;0.38;0.38;;;4.20;99.90;;;;;;5056491;28;20196;-71
2023/05/10 01:36:51;;;;;;;0.70;0.70;;;4.20;99.90;;;;;;5056408;28;20220;-71
2023/05/10 01:39:25;;;;;;;0.30;0.30;;;4.20;99.90;;;;;;5056193;28;20201;-71
2023/05/10 01:42:00;;;;;;;0.30;0.30;;;4.30;99.90;;;;;;5056241;28;20221;-71
2023/05/10 01:44:35;;;;;;;0.38;0.38;;;4.50;99.90;;;;;;5054789;28;20193;-71
2023/05/10 01:47:47;;;;;;;0.38;0.38;;;4.50;99.90;;;;;;5054959;28;20197;-70
2023/05/10 01:50:22;;;;;;;0.30;0.30;;;4.60;99.90;;;;;;5033613;28;20209;-70
2023/05/10 01:52:54;;;;;;;0.40;0.40;;;4.50;99.90;;;;;;5056578;28;20248;-70
2023/05/10 01:55:22;;;;;;;0.30;0.30;;;4.40;99.90;;;;;;5056539;28;20213;-70
2023/05/10 01:57:52;;;;;;;0.40;0.40;;;4.30;99.90;;;;;;5038826;28;20252;-69
2023/05/10 02:00:19;;;;;;;0.38;0.38;;;4.20;99.90;;;;;;5056504;28;20232;-70
2023/05/10 02:02:47;;;;;;;0.40;0.40;;;4.10;99.90;;;;;;5055486;28;20225;-70
2023/05/10 02:05:15;;;;;;;0.40;0.40;;;4.00;99.90;;;;;;5055817;28;20194;-70
2023/05/10 02:07:41;;;;;;;0.32;0.32;;;4.00;99.90;;;;;;5055567;28;20201;-70
2023/05/10 02:10:09;;;;;;;0.40;0.40;;;3.90;99.90;;;;;;5056459;28;20196;-69
2023/05/10 02:12:40;;;;;;;0.50;0.50;;;3.90;99.90;;;;;;5055281;28;20262;-70
2023/05/10 02:15:07;;;;;;;0.30;0.30;;;3.80;99.90;;;;;;5056102;28;20289;-70
2023/05/10 02:17:36;;;;;;;0.30;0.30;;;3.70;99.90;;;;;;5056020;28;20247;-70
2023/05/10 02:20:04;;;;;;;0.30;0.30;;;3.70;99.90;;;;;;5056036;28;20213;-70
2023/05/10 02:22:31;;;;;;;0.30;0.30;;;3.70;99.90;;;;;;5040979;28;20201;-70
2023/05/10 02:24:59;;;;;;;0.40;0.40;;;3.60;99.90;;;;;;5076170;28;20260;-69
2023/05/10 02:27:27;;;;;;;0.38;0.38;;;3.60;99.90;;;;;;5075930;28;20239;-70
2023/05/10 02:29:54;;;;;;;0.30;0.30;;;3.50;99.90;;;;;;5075998;28;20201;-70
2023/05/10 02:32:22;;;;;;;0.60;0.60;;;3.50;99.90;;;;;;5075780;28;20227;-69
2023/05/10 02:34:51;;;;;;;0.30;0.30;;;3.50;99.90;;;;;;5058063;28;20197;-70
2023/05/10 02:37:19;;;;;;;0.30;0.30;;;3.50;99.90;;;;;;5054731;28;20190;-70
2023/05/10 02:39:47;;;;;;;0.30;0.30;;;3.50;99.90;;;;;;5037792;28;20237;-70
2023/05/10 02:42:17;;;;;;;0.32;0.32;;;3.50;99.90;;;;;;5055450;28;20660;-70
2023/05/10 02:44:45;;;;;;;0.30;0.30;;;3.40;99.90;;;;;;5055355;28;20182;-69
2023/05/10 02:47:11;;;;;;;0.30;0.30;;;3.40;99.90;;;;;;5055796;28;20706;-69
2023/05/10 02:49:37;;;;;;;0.30;0.30;;;3.40;99.90;;;;;;5055313;28;20198;-70
2023/05/10 02:52:06;;;;;;;0.32;0.32;;;3.40;99.90;;;;;;5055914;28;20197;-70
2023/05/10 02:54:39;;;;;;;0.30;0.30;;;3.40;99.90;;;;;;5054792;28;20189;-70
2023/05/10 02:57:07;;;;;;;0.70;0.70;;;3.40;99.90;;;;;;5037024;28;20758;-70
2023/05/10 02:59:33;;;;;;;0.50;0.50;;;3.30;99.90;;;;;;5055260;28;20193;-70
2023/05/10 03:02:03;;;;;;;0.40;0.40;;;3.30;99.90;;;;;;5034231;28;20602;-70
2023/05/10 03:04:28;;;;;;;0.30;0.30;;;3.30;99.90;;;;;;5034978;28;20676;-70
2023/05/10 03:06:54;;;;;;;0.35;0.35;;;3.30;99.90;;;;;;5035373;28;20244;-70
2023/05/10 03:09:21;;;;;;;0.30;0.30;;;3.30;99.90;;;;;;5035070;28;20194;-70
2023/05/10 03:12:17;;;;;;;0.30;0.30;;;3.30;99.90;;;;;;5035549;28;20594;-70
2023/05/10 03:15:01;;;;;;;0.30;0.30;;;3.30;99.90;;;;;;5035037;28;20187;-70
2023/05/10 03:17:49;;;;;;;0.40;0.40;;;3.40;99.90;;;;;;5016928;28;20260;-70
2023/05/10 03:20:29;;;;;;;0.40;0.40;;;3.40;99.90;;;;;;5051368;28;20205;-70
2023/05/10 03:23:17;;;;;;;0.40;0.40;;;3.40;99.90;;;;;;5055136;28;20601;-70
2023/05/10 03:25:44;;;;;;;0.40;0.40;;;3.40;99.90;;;;;;5054111;28;20676;-70
2023/05/10 03:28:10;;;;;;;0.40;0.40;;;3.40;99.90;;;;;;5036863;28;20197;-70
2023/05/10 03:30:36;;;;;;;1.20;0.82;;;3.40;99.90;;;;;;5036826;28;20609;-70
2023/05/10 03:33:08;;;;;;;0.30;0.30;;;3.40;99.90;;;;;;5054905;28;20691;-69
2023/05/10 03:35:34;;;;;;;0.38;0.38;;;3.50;99.90;;;;;;5054535;28;20232;-70
2023/05/10 03:38:00;;;;;;;0.40;0.40;;;3.50;99.90;;;;;;5045547;28;20237;-70
2023/05/10 03:40:28;;;;;;;0.40;0.40;;;3.50;99.90;;;;;;5034528;28;20710;-70
2023/05/10 03:42:55;;;;;;;0.32;0.32;;;3.50;99.90;;;;;;5034750;28;20310;-70
2023/05/10 03:45:21;;;;;;;0.40;0.40;;;3.50;99.90;;;;;;5034399;28;20195;-70
2023/05/10 03:47:46;;;;;;;0.40;0.40;;;3.60;99.90;;;;;;5034712;28;20195;-70
2023/05/10 03:50:12;;;;;;;0.30;0.30;;;3.60;99.90;;;;;;5016662;28;20565;-70
2023/05/10 03:52:39;;;;;;;0.40;0.40;;;3.70;99.90;;;;;;5016710;28;20202;-70
2023/05/10 03:55:06;;;;;;;0.70;0.70;;;3.70;99.90;;;;;;5033363;28;20240;-70
2023/05/10 03:57:32;;;;;;;0.30;0.30;;;3.80;99.90;;;;;;5016631;28;20248;-70
2023/05/10 03:59:57;;;;;;;0.30;0.30;;;3.90;99.90;;;;;;5016454;28;20213;-70
2023/05/10 04:02:23;;;;;;;1.65;0.95;;;4.00;99.90;;;;;;5021605;28;20236;-70
2023/05/10 04:04:49;;;;;;;1.35;1.25;;;4.00;99.90;;;;;;5036364;28;20204;-70
2023/05/10 04:07:15;;;;;;;0.30;0.30;;;4.10;99.90;;;;;;5053609;28;20252;-70
2023/05/10 04:09:40;;;;;;;0.40;0.40;;;4.20;99.90;;;;;;5036119;28;20212;-70
2023/05/10 04:12:06;;;;;;;0.63;0.60;;;4.20;99.90;;;;;;5054108;28;20276;-70
2023/05/10 04:14:32;;;;;;;0.30;0.30;;;4.30;99.90;;;;;;5035923;28;20201;-69
2023/05/10 04:17:05;;;;;;;0.30;0.30;;;4.30;99.90;;;;;;5106592;27;20577;-70
2023/05/10 04:19:31;;;;;;;0.30;0.30;;;4.40;99.90;;;;;;5090812;28;20215;-70
2023/05/10 04:21:57;;;;;;;0.30;0.30;;;4.60;99.90;;;;;;5072513;28;20218;-70
2023/05/10 04:24:23;;;;;;;0.32;0.32;;;4.70;99.90;;;;;;5072113;28;20283;-70
2023/05/10 04:26:49;;;;;;;0.70;0.70;;;4.90;99.90;;;;;;5072245;28;20309;-70
2023/05/10 04:29:15;;;;;;;0.70;0.70;;;5.10;99.90;;;;;;5090557;28;20203;-70
2023/05/10 04:31:40;;;;;;;0.70;0.70;;;5.30;99.90;;;;;;5090420;28;20197;-70
2023/05/10 04:34:06;;;;;;;0.63;0.63;;;5.50;99.90;;;;;;5090023;28;20291;-70
2023/05/10 04:36:36;;;;;;;0.70;0.70;;;5.60;99.90;;;;;;5072032;28;20216;-71
2023/05/10 04:39:03;;;;;;;0.70;0.70;;;5.80;99.90;;;;;;5071999;28;20192;-70
2023/05/10 04:41:28;;;;;;;0.73;0.73;;;6.00;99.90;;;;;;5089975;28;20220;-70
2023/05/10 04:43:55;;;;;;;0.70;0.70;;;6.20;99.90;;;;;;5090353;28;20282;-70
2023/05/10 04:46:20;;;;;;;1.27;1.20;;;6.40;99.90;;;;;;5090285;28;20188;-70
2023/05/10 04:48:46;;;;;;;0.60;0.60;;;6.60;99.90;;;;;;5089688;28;20196;-70
2023/05/10 04:51:12;;;;;;;0.80;0.80;;;6.80;99.90;;;;;;5072171;28;20716;-70
2023/05/10 04:53:38;;;;;;;0.70;0.70;;;7.00;99.90;;;;;;5090016;28;20196;-71
2023/05/10 04:56:04;;;;;;;1.25;1.23;;;7.10;99.90;;;;;;5071802;28;20220;-70
2023/05/10 04:58:29;;;;;;;0.70;0.70;;;7.30;99.90;;;;;;5089799;28;20192;-70
2023/05/10 05:00:55;;;;;;;0.80;0.80;;;7.40;99.90;;;;;;5089769;28;20199;-70
2023/05/10 05:03:22;;;;;;;0.70;0.70;;;7.50;99.90;;;;;;5089526;28;20196;-70
2023/05/10 05:05:47;;;;;;;0.70;0.70;;;7.70;99.90;;;;;;5090038;28;20192;-70
2023/05/10 05:08:13;;;;;;;0.70;0.70;;;7.80;99.90;;;;;;5071639;28;20196;-70
2023/05/10 05:10:39;;;;;;;0.70;0.70;;;7.90;99.90;;;;;;5089703;28;20235;-70
2023/05/10 05:13:05;;;;;;;0.70;0.70;;;8.00;99.90;;;;;;5052338;28;20212;-70
2023/05/10 05:15:31;;;;;;;0.70;0.70;;;8.10;99.90;;;;;;5068839;28;20237;-70
2023/05/10 05:17:57;;;;;;;0.70;0.70;;;8.30;99.90;;;;;;5069404;28;20193;-70
2023/05/10 05:20:23;;;;;;;0.65;0.65;;;8.40;99.90;;;;;;5069123;28;20695;-71
2023/05/10 05:22:48;;;;;;;0.70;0.70;;;8.60;99.90;;;;;;5069273;28;20217;-69
2023/05/10 05:25:15;;;;;;;0.60;0.60;;;8.70;99.90;;;;;;5069116;28;20204;-71
2023/05/10 05:27:41;;;;;;;0.75;0.75;;;8.90;99.90;;;;;;5059329;28;20201;-70
2023/05/10 05:30:07;;;;;;;0.70;0.70;;;9.10;99.90;;;;;;5055911;28;20216;-70
2023/05/10 05:32:33;;;;;;;0.73;0.73;;;9.30;99.90;;;;;;5055833;28;20676;-70
2023/05/10 05:34:59;;;;;;;0.60;0.60;;;9.50;99.90;;;;;;5068364;28;20271;-70
2023/05/10 05:37:25;;;;;;;0.75;0.75;;;9.60;99.90;;;;;;5054139;28;20219;-71
2023/05/10 05:39:51;;;;;;;0.60;0.60;;;9.80;99.90;;;;;;5074276;28;20272;-70
2023/05/10 05:42:18;;;;;;;0.85;0.85;;;9.90;99.90;;;;;;5057781;28;20196;-71
2023/05/10 05:44:44;;;;;;;0.60;0.60;;;10.10;99.90;;;;;;5057718;28;20216;-70
2023/05/10 05:47:13;;;;;;;0.70;0.70;;;10.20;99.90;;;;;;5057193;28;20201;-70
2023/05/10 05:49:40;;;;;;;0.63;0.63;;;10.40;99.90;;;;;;5075457;28;20205;-71
2023/05/10 05:52:06;;;;;;;0.70;0.70;;;10.60;99.90;;;;;;5075428;28;20195;-71
2023/05/10 05:54:32;;;;;;;0.60;0.60;;;10.70;99.90;;;;;;5074080;28;20201;-71
2023/05/10 05:56:59;;;;;;;0.63;0.63;;;10.80;99.90;;;;;;5075427;28;20201;-70
2023/05/10 05:59:24;;;;;;;0.80;0.80;;;11.00;99.90;;;;;;5075278;28;20189;-70
2023/05/10 06:01:51;;;;;;;0.50;0.50;;;11.10;99.90;;;;;;5075312;28;20736;-71
2023/05/10 06:04:17;;;;;;;0.60;0.60;;;11.30;99.90;;;;;;5075220;28;20193;-70
2023/05/10 06:06:42;;;;;;;0.60;0.60;;;11.40;99.90;;;;;;5073561;28;20698;-71
2023/05/10 06:09:09;;;;;;;2.55;1.35;;;11.60;99.90;;;;;;5074886;28;20196;-70
2023/05/10 06:11:35;;;;;;;0.60;0.60;;;11.80;99.90;;;;;;5075138;28;20276;-71
2023/05/10 06:14:01;;;;;;;0.60;0.60;;;11.90;99.90;;;;;;5075261;28;20323;-71
2023/05/10 06:16:27;;;;;;;0.50;0.50;;;12.20;99.90;;;;;;5074610;28;20268;-71
2023/05/10 06:18:53;;;;;;;0.60;0.60;;;12.30;99.90;;;;;;5075187;28;20587;-71
2023/05/10 06:21:19;;;;;;;3.03;1.40;;;12.50;99.90;;;;;;5074951;28;20243;-72
2023/05/10 06:23:45;;;;;;;0.50;0.50;;;12.60;99.90;;;;;;5075258;28;20635;-71
2023/05/10 06:26:11;;;;;;;1.08;0.98;;;12.70;99.90;;;;;;5074915;28;20189;-71
2023/05/10 06:28:39;;;;;;;0.55;0.55;;;12.90;99.90;;;;;;5074735;28;20196;-71
2023/05/10 06:31:06;;;;;;;0.63;0.63;;;13.00;99.90;;;;;;5074676;28;20288;-71
2023/05/10 06:33:33;;;;;;;0.65;0.65;;;13.30;99.90;;;;;;5074664;28;20193;-71
2023/05/10 06:35:59;;;;;;;0.40;0.40;;;13.40;99.90;;;;;;5056655;28;20676;-72
2023/05/10 06:38:24;;;;;;;0.55;0.55;;;13.50;99.90;;;;;;5053366;28;20209;-71
2023/05/10 06:40:50;;;;;;;0.57;0.57;;;13.70;99.90;;;;;;5036565;28;20268;-71
2023/05/10 06:43:16;;;;;;;0.75;0.75;;;13.90;99.90;;;;;;5054736;28;20415;-71
2023/05/10 06:45:42;;;;;;;0.50;0.50;;;14.00;99.90;;;;;;5053949;28;20198;-72
2023/05/10 06:48:08;;;;;;;0.50;0.50;;;14.20;99.90;;;;;;5036407;28;20612;-71
2023/05/10 06:50:34;;;;;;;0.50;0.50;;;14.30;99.90;;;;;;5071043;28;20197;-71
2023/05/10 06:53:01;;;;;;;0.52;0.52;;;14.20;99.90;;;;;;5074245;28;20193;-72
2023/05/10 06:55:27;;;;;;;0.77;0.75;;;14.30;99.90;;;;;;5073993;28;20208;-72
2023/05/10 06:57:53;;;;;;;0.55;0.55;;;14.60;99.90;;;;;;5074437;28;20188;-71
2023/05/10 07:00:19;;;;;;;0.57;0.57;;;14.60;99.90;;;;;;5074139;28;20192;-72
2023/05/10 07:02:45;;;;;;;0.50;0.50;;;14.80;99.90;;;;;;5074133;28;20276;-72
2023/05/10 07:05:11;;;;;;;0.63;0.63;;;14.80;99.90;;;;;;5058173;28;20306;-72
2023/05/10 07:07:37;;;;;;;0.50;0.50;;;14.80;99.90;;;;;;5054022;28;20209;-71
2023/05/10 07:10:03;;;;;;;1.15;0.68;;;14.90;99.90;;;;;;5054154;28;20327;-72
2023/05/10 07:12:29;;;;;;;0.50;0.50;;;15.10;99.90;;;;;;5035914;28;20193;-73
2023/05/10 07:14:55;;;;;;;0.43;0.43;;;15.20;99.90;;;;;;5035753;28;20292;-70
2023/05/10 07:17:20;;;;;;;0.75;0.75;;;15.20;99.90;;;;;;5054111;28;20267;-71
2023/05/10 07:19:46;;;;;;;0.40;0.40;;;15.30;99.90;;;;;;5035944;28;20194;-71
2023/05/10 07:22:12;;;;;;;0.68;0.68;;;15.30;99.90;;;;;;5054442;28;20670;-71
2023/05/10 07:24:38;;;;;;;0.40;0.40;;;15.60;99.90;;;;;;5073048;28;20602;-71
2023/05/10 07:27:04;;;;;;;0.52;0.52;;;15.80;99.90;;;;;;5073695;28;20201;-71
2023/05/10 07:29:30;;;;;;;0.30;0.30;;;16.10;99.90;;;;;;5073509;28;20192;-71
2023/05/10 07:31:56;;;;;;;0.85;0.63;;;15.90;99.90;;;;;;5073497;28;20706;-71
2023/05/10 07:34:22;;;;;;;0.40;0.40;;;15.60;99.90;;;;;;5073371;28;20218;-71
2023/05/10 07:36:47;;;;;;;0.77;0.77;;;15.90;99.90;;;;;;5073550;28;20200;-71
2023/05/10 07:39:13;;;;;;;0.50;0.50;;;16.10;99.90;;;;;;5054420;28;20762;-71
2023/05/10 07:41:39;;;;;;;0.52;0.52;;;16.30;99.90;;;;;;5053438;28;20232;-71
2023/05/10 07:44:05;;;;;;;0.50;0.50;;;16.50;99.80;;;;;;5053598;28;20190;-71
2023/05/10 07:46:31;;;;;;;1.38;1.02;;;16.60;99.20;;;;;;5069809;28;20209;-71
2023/05/10 07:48:57;;;;;;;0.40;0.40;;;16.40;98.20;;;;;;5073417;28;20208;-71
2023/05/10 07:51:23;;;;;;;0.85;0.85;;;16.30;98.40;;;;;;5072827;28;20193;-71
2023/05/10 07:53:48;;;;;;;1.27;1.15;;;16.30;96.30;;;;;;5073397;28;20200;-71
2023/05/10 07:56:29;;;;;;;0.50;0.50;;;16.60;96.30;;;;;;5072927;28;20720;-71
2023/05/10 07:58:59;;;;;;;1.45;0.60;;;17.00;96.60;;;;;;5073161;28;20185;-71
2023/05/10 08:01:25;;;;;;;0.30;0.30;;;17.20;96.30;;;;;;5055814;28;20258;-72
2023/05/10 08:03:53;;;;;;;0.68;0.68;;;17.70;97.10;;;;;;5053059;28;20205;-71
2023/05/10 08:06:19;;;;;;;0.88;0.63;;;18.00;96.00;;;;;;5053161;28;20197;-72
2023/05/10 08:08:49;;;;;;;0.30;0.30;;;18.10;93.60;;;;;;5051294;28;20286;-71
2023/05/10 08:11:18;;;;;;;0.73;0.50;;;18.00;93.80;;;;;;5052581;28;20190;-71
2023/05/10 08:13:45;;;;;;;0.40;0.40;;;17.60;92.20;;;;;;5053081;28;20660;-71
2023/05/10 08:16:11;;;;;;;0.50;0.50;;;17.40;93.80;;;;;;5052877;28;20257;-72
2023/05/10 08:18:37;;;;;;;0.40;0.40;;;17.50;93.10;;;;;;5055424;28;20694;-71
2023/05/10 08:21:03;;;;;;;1.70;0.82;;;17.40;93.00;;;;;;5055069;28;20670;-72
2023/05/10 08:23:28;;;;;;;0.43;0.40;;;17.50;92.60;;;;;;5072752;28;20196;-71
2023/05/10 08:25:54;;;;;;;0.40;0.40;;;17.90;91.90;;;;;;5055027;28;20223;-72
2023/05/10 08:28:20;;;;;;;0.30;0.30;;;17.80;91.70;;;;;;5056395;28;20208;-72
2023/05/10 08:30:45;;;;;;;0.80;0.60;;;18.40;92.20;;;;;;5052938;28;20194;-72
2023/05/10 08:33:11;;;;;;;0.40;0.40;;;19.00;91.40;;;;;;5052977;28;20197;-72
2023/05/10 08:35:37;;;;;;;0.40;0.40;;;19.10;90.40;;;;;;5034816;28;20296;-72
2023/05/10 08:38:05;;;;;;;0.32;0.32;;;19.40;90.60;;;;;;5052639;28;20193;-72
2023/05/10 08:40:31;;;;;;;7.43;1.30;;;19.10;88.30;;;;;;5052672;28;20197;-72
2023/05/10 08:43:06;;;;;;;0.40;0.40;;;18.70;90.10;;;;;;5070713;28;20219;-71
2023/05/10 08:45:36;;;;;;;1.00;0.45;;;19.10;88.70;;;;;;5072601;28;20251;-72
2023/05/10 08:48:02;;;;;;;0.60;0.60;;;18.70;87.30;;;;;;5072858;28;20664;-72
2023/05/10 08:50:29;;;;;;;0.65;0.60;;;19.10;87.80;;;;;;5054580;28;20193;-72
2023/05/10 08:52:59;;;;;;;0.55;0.55;;;18.80;86.20;;;;;;5054385;28;20631;-72
2023/05/10 08:55:26;;;;;;;43.05;1.05;;;18.80;86.70;;;;;;5071950;28;20193;-71
2023/05/10 08:57:51;;;;;;;0.50;0.50;;;18.90;86.80;;;;;;5072562;28;20682;-72
2023/05/10 09:00:18;;;;;;;1.13;1.02;;;18.60;89.90;;;;;;5072761;28;20197;-71
2023/05/10 09:02:45;;;;;;;0.50;0.50;;;18.80;87.30;;;;;;5074190;28;20276;-72
2023/05/10 09:05:12;;;;;;;0.30;0.30;;;19.00;87.80;;;;;;5076443;28;20193;-71
2023/05/10 09:07:38;;;;;;;0.65;0.65;;;19.10;87.30;;;;;;5076098;28;20224;-72
2023/05/10 09:10:05;;;;;;;0.60;0.60;;;19.20;83.40;;;;;;5076413;28;20231;-72
2023/05/10 09:12:30;;;;;;;0.45;0.45;;;19.40;85.80;;;;;;5076087;28;20197;-72
2023/05/10 09:14:59;;;;;;;0.57;0.52;;;20.20;83.70;;;;;;5075955;28;20351;-73
2023/05/10 09:17:26;;;;;;;2.85;0.85;;;20.50;82.20;;;;;;5058167;28;20229;-72
2023/05/10 09:20:03;;;;;;;0.82;0.70;;;20.30;80.70;;;;;;5076148;28;20204;-72
2023/05/10 09:22:31;;;;;;;0.60;0.50;;;20.80;82.50;;;;;;5058220;28;20534;-72
2023/05/10 09:25:06;;;;;;;0.50;0.50;;;21.10;80.60;;;;;;5075841;28;20293;-73
2023/05/10 09:27:33;;;;;;;1.38;0.70;;;20.50;76.20;;;;;;5075861;28;20184;-72
2023/05/10 09:29:59;;;;;;;0.30;0.30;;;20.60;76.50;;;;;;5075959;28;20200;-73
2023/05/10 09:32:44;;;;;;;0.30;0.30;;;20.50;76.80;;;;;;5075714;28;20189;-73
2023/05/10 09:35:12;;;;;;;0.63;0.43;;;21.30;80.10;;;;;;5075763;28;20209;-73
2023/05/10 09:37:48;;;;;;;3.83;0.70;;;21.80;79.70;;;;;;5074524;28;20205;-71
2023/05/10 09:40:25;;;;;;;2.85;2.15;;;21.50;72.10;;;;;;5075859;28;20230;-72
2023/05/10 09:42:59;;;;;;;0.43;0.43;;;21.30;78.30;;;;;;5075576;28;20224;-72
2023/05/10 09:45:27;;;;;;;0.70;0.70;;;21.30;75.80;;;;;;5057677;28;20586;-72
2023/05/10 09:47:53;;;;;;;1.13;0.55;;;21.40;74.90;;;;;;5075686;28;20204;-72
2023/05/10 09:50:20;;;;;;;1.33;1.05;;;21.30;72.80;;;;;;5075527;28;20196;-72
2023/05/10 09:52:51;;;;;;;1.67;1.27;;;21.80;76.40;;;;;;5069312;28;20201;-72
2023/05/10 09:55:18;;;;;;;2.60;0.68;;;21.70;70.30;;;;;;5055404;28;20205;-72
2023/05/10 09:57:44;;;;;;;0.57;0.57;;;21.90;72.00;;;;;;5037035;28;20193;-72
2023/05/10 10:00:10;;;;;;;0.60;0.60;;;21.60;70.80;;;;;;5055413;28;20560;-71
2023/05/10 10:02:36;;;;;;;0.75;0.40;;;21.60;68.40;;;;;;5054983;28;20189;-70
2023/05/10 10:05:05;;;;;;;0.40;0.40;;;21.60;67.80;;;;;;5055313;28;20192;-71
2023/05/10 10:07:31;;;;;;;0.30;0.30;;;22.10;74.00;;;;;;5055140;28;20181;-71
2023/05/10 10:09:59;;;;;;;0.55;0.55;;;22.30;68.10;;;;;;5037359;28;20197;-70
2023/05/10 10:12:25;;;;;;;1.38;0.90;;;22.40;69.30;;;;;;5054930;28;20189;-70
2023/05/10 10:14:51;;;;;;;0.55;0.55;;;21.90;67.10;;;;;;5055874;28;20656;-70
2023/05/10 10:17:19;;;;;;;0.60;0.60;;;22.10;67.80;;;;;;5074893;28;20760;-70
2023/05/10 10:19:46;;;;;;;0.82;0.55;;;21.80;66.50;;;;;;5074778;28;20220;-70
2023/05/10 10:22:12;;;;;;;0.30;0.30;;;21.90;67.20;;;;;;5074901;28;20192;-71
2023/05/10 10:24:41;;;;;;;0.20;0.20;;;22.10;66.00;;;;;;5074819;28;20244;-71
2023/05/10 10:27:19;;;;;;;38.17;1.65;;;22.00;64.80;;;;;;5074713;28;20193;-70
2023/05/10 10:29:50;;;;;;;2.67;0.60;;;22.00;66.00;;;;;;5056837;28;20197;-70
2023/05/10 10:32:34;;;;;;;0.43;0.43;;;22.10;67.10;;;;;;5074726;28;20193;-70
2023/05/10 10:35:00;;;;;;;0.28;0.28;;;22.00;67.50;;;;;;5074536;28;20200;-71
2023/05/10 10:37:45;;;;;;;1.23;0.80;;;22.60;68.00;;;;;;5074354;28;20238;-71
2023/05/10 10:40:30;;;;;;;0.60;0.60;;;22.80;67.20;;;;;;5074417;28;20611;-70
2023/05/10 10:42:56;;;;;;;0.57;0.57;;;22.80;68.70;;;;;;5074990;28;20647;-70
2023/05/10 10:45:24;;;;;;;0.40;0.40;;;22.80;66.80;;;;;;5074276;28;20197;-71
2023/05/10 10:48:12;;;;;;;1.27;0.90;;;22.80;65.80;;;;;;5074610;28;20197;-71
2023/05/10 10:50:47;;;;;;;0.52;0.47;;;23.10;66.20;;;;;;5054638;28;20201;-70
2023/05/10 10:53:13;;;;;;;0.90;0.65;;;22.90;66.80;;;;;;5054564;28;20619;-70
2023/05/10 10:55:47;;;;;;;2.17;1.13;;;23.00;63.90;;;;;;5054198;28;20292;-70
2023/05/10 10:58:30;;;;;;;0.20;0.20;;;23.20;67.10;;;;;;5054316;28;20273;-70
2023/05/10 11:01:18;;;;;;;0.50;0.50;;;22.70;68.80;;;;;;5054284;28;20675;-70
2023/05/10 11:04:02;;;;;;;0.45;0.45;;;23.20;67.80;;;;;;5054311;28;20530;-71
2023/05/10 11:06:31;;;;;;;0.25;0.25;;;22.70;66.20;;;;;;5036120;28;20200;-70
2023/05/10 11:08:57;;;;;;;0.45;0.45;;;22.50;68.10;;;;;;5054142;28;20189;-70
2023/05/10 11:11:23;;;;;;;2.63;0.65;;;23.10;68.40;;;;;;5057241;28;20189;-70
2023/05/10 11:13:49;;;;;;;0.30;0.30;;;22.90;66.30;;;;;;5074031;28;20189;-69
2023/05/10 11:16:20;;;;;;;0.63;0.50;;;22.50;67.00;;;;;;5063850;28;20221;-71
2023/05/10 11:19:04;;;;;;;0.40;0.40;;;22.90;69.00;;;;;;5053863;28;20196;-71
2023/05/10 11:21:31;;;;;;;1.52;0.88;;;23.40;67.70;;;;;;5053751;28;20635;-71
2023/05/10 11:23:58;;;;;;;0.65;0.55;;;23.30;64.00;;;;;;5035877;28;20229;-71
2023/05/10 11:26:26;;;;;;;1.10;0.60;;;22.90;67.80;;;;;;5053261;28;20197;-70
2023/05/10 11:28:58;;;;;;;0.52;0.45;;;22.50;65.80;;;;;;5053823;28;20268;-70
2023/05/10 11:31:26;;;;;;;0.60;0.60;;;22.80;69.30;;;;;;5063047;28;20300;-71
2023/05/10 11:33:57;;;;;;;0.30;0.30;;;22.90;64.90;;;;;;5073029;28;20272;-70
2023/05/10 11:36:28;;;;;;;1.58;0.88;;;23.10;64.40;;;;;;5071417;28;20243;-70
2023/05/10 11:38:55;;;;;;;1.08;0.60;;;23.30;66.80;;;;;;5073297;28;20188;-70
2023/05/10 11:41:22;;;;;;;0.35;0.35;;;23.40;68.10;;;;;;5055444;28;20199;-72
2023/05/10 11:43:53;;;;;;;1.10;1.00;;;24.00;64.50;;;;;;5073465;28;20197;-72
2023/05/10 11:46:21;;;;;;;1.55;0.90;;;24.50;67.00;;;;;;5073359;28;20193;-70
2023/05/10 11:48:50;;;;;;;0.63;0.63;;;24.20;64.10;;;;;;5055798;28;20292;-70
2023/05/10 11:51:19;;;;;;;0.77;0.65;;;24.20;64.10;;;;;;5073355;28;20197;-71
2023/05/10 11:53:45;;;;;;;0.57;0.57;;;23.50;62.30;;;;;;5073357;28;20227;-70
2023/05/10 11:56:11;;;;;;;0.50;0.50;;;23.60;64.60;;;;;;5073368;28;20232;-71
2023/05/10 11:58:38;;;;;;;1.20;0.73;;;24.00;64.00;;;;;;5073267;28;20732;-71
2023/05/10 12:01:07;;;;;;;1.23;0.73;;;24.10;65.70;;;;;;5073288;28;20199;-71
2023/05/10 12:03:33;;;;;;;1.13;0.50;;;23.90;62.60;;;;;;5073038;28;20558;-70
2023/05/10 12:06:00;;;;;;;0.47;0.47;;;23.40;63.90;;;;;;5073206;28;20197;-70
2023/05/10 12:08:28;;;;;;;0.45;0.45;;;23.30;64.80;;;;;;5055041;28;20567;-70
2023/05/10 12:11:05;;;;;;;1.25;1.10;;;23.10;65.10;;;;;;5055285;28;20197;-70
2023/05/10 12:13:31;;;;;;;0.45;0.45;;;22.90;64.60;;;;;;5072958;28;20203;-71
2023/05/10 12:16:15;;;;;;;0.70;0.70;;;22.30;65.40;;;;;;5054882;28;20241;-70
2023/05/10 12:18:44;;;;;;;0.40;0.40;;;23.00;65.00;;;;;;5073114;28;20551;-70
2023/05/10 12:21:11;;;;;;;1.30;0.52;;;23.30;63.00;;;;;;5073041;28;20679;-70
2023/05/10 12:23:38;;;;;;;0.22;0.22;;;23.60;64.60;;;;;;5072997;28;20249;-71
2023/05/10 12:26:04;;;;;;;0.20;0.20;;;24.50;64.30;;;;;;5073055;28;20643;-70
2023/05/10 12:28:31;;;;;;;0.50;0.32;;;24.80;61.70;;;;;;5071405;28;20201;-70
2023/05/10 12:30:59;;;;;;;0.30;0.30;;;24.60;59.90;;;;;;5067428;28;20235;-71
2023/05/10 12:33:25;;;;;;;1.05;0.55;;;24.40;61.90;;;;;;5072994;28;20197;-71
2023/05/10 12:35:53;;;;;;;0.20;0.20;;;24.30;60.70;;;;;;5072855;28;20217;-71
2023/05/10 12:38:37;;;;;;;0.32;0.32;;;24.70;62.10;;;;;;5064229;28;20205;-71
2023/05/10 12:41:05;;;;;;;0.77;0.52;;;24.90;62.70;;;;;;5059114;28;20681;-70
2023/05/10 12:43:32;;;;;;;0.77;0.70;;;24.40;60.50;;;;;;5076829;28;20199;-70
2023/05/10 12:45:58;;;;;;;0.45;0.45;;;24.30;60.70;;;;;;5076911;28;20200;-71
2023/05/10 12:48:24;;;;;;;1.40;1.15;;;24.30;63.00;;;;;;5076505;28;20410;-71
2023/05/10 12:50:50;;;;;;;0.30;0.30;;;23.70;60.00;;;;;;5076742;28;20675;-71
2023/05/10 12:53:16;;;;;;;0.40;0.40;;;22.90;61.30;;;;;;5076715;28;20193;-70
2023/05/10 12:55:45;;;;;;;0.32;0.32;;;23.30;60.60;;;;;;5076436;28;20304;-70